createdAt,value
2022-10-03T00:02:14.984Z,15.33
2022-10-03T00:07:36.435Z,15.21
2022-10-03T00:12:50.825Z,15.32
2022-10-03T00:18:27.094Z,15.35
2022-10-03T00:23:39.781Z,15.16
2022-10-03T00:29:12.641Z,15.23
2022-10-03T00:34:22.496Z,15.11
2022-10-03T00:39:44.277Z,15.01
2022-10-03T00:44:52.074Z,15.16
2022-10-03T00:50:06.144Z,15.08
2022-10-03T00:55:48.792Z,14.79
2022-10-03T01:00:58.184Z,14.81
2022-10-03T01:06:22.282Z,14.98
2022-10-03T01:11:36.834Z,14.94
2022-10-03T01:17:08.269Z,14.79
2022-10-03T01:22:30.495Z,14.77
2022-10-03T01:28:08.551Z,14.61
2022-10-03T01:33:41.034Z,14.56
2022-10-03T01:38:56.519Z,14.74
2022-10-03T01:44:25.444Z,14.44
2022-10-03T01:49:31.503Z,14.71
2022-10-03T01:54:44.457Z,14.55
2022-10-03T01:59:58.303Z,14.64
2022-10-03T02:05:15.979Z,14.70
2022-10-03T02:10:28.370Z,14.65
2022-10-03T02:15:38.667Z,14.58
2022-10-03T02:20:44.414Z,14.62
2022-10-03T02:25:50.366Z,14.45
2022-10-03T02:31:12.072Z,14.20
2022-10-03T02:36:38.654Z,14.34
2022-10-03T02:41:59.229Z,14.60
2022-10-03T02:47:36.640Z,14.44
2022-10-03T02:53:06.763Z,14.10
2022-10-03T02:58:41.760Z,14.23
2022-10-03T03:03:47.582Z,14.30
2022-10-03T03:09:17.781Z,14.46
2022-10-03T03:14:53.904Z,14.52
2022-10-03T03:20:12.964Z,14.65
2022-10-03T03:25:16.941Z,14.64
2022-10-03T03:30:31.487Z,14.78
2022-10-03T03:36:06.102Z,15.03
2022-10-03T03:41:21.324Z,14.56
2022-10-03T03:46:27.535Z,14.90
2022-10-03T03:52:07.420Z,15.07
2022-10-03T03:57:15.601Z,15.06
2022-10-03T04:02:31.033Z,15.27
2022-10-03T04:07:50.737Z,15.43
2022-10-03T04:12:59.582Z,15.36
2022-10-03T04:18:51.456Z,15.43
2022-10-03T04:24:37.007Z,15.36
2022-10-03T04:29:47.250Z,15.14
2022-10-03T04:35:28.717Z,15.35
2022-10-03T04:40:54.511Z,15.13
2022-10-03T04:46:16.344Z,15.25
2022-10-03T04:51:21.641Z,15.23
2022-10-03T04:56:38.996Z,15.13
2022-10-03T05:02:15.601Z,14.72
2022-10-03T05:08:13.379Z,14.74
2022-10-03T05:13:33.153Z,14.42
2022-10-03T05:18:47.615Z,14.25
2022-10-03T05:24:17.285Z,13.70
2022-10-03T05:29:58.422Z,13.96
2022-10-03T05:35:45.319Z,14.20
2022-10-03T05:41:00.874Z,14.16
2022-10-03T05:46:09.887Z,14.13
2022-10-03T05:51:44.657Z,14.20
2022-10-03T05:57:23.793Z,14.38
2022-10-03T06:02:54.401Z,14.47
2022-10-03T06:08:32.627Z,14.62
2022-10-03T06:13:49.365Z,14.67
2022-10-03T06:19:08.647Z,14.71
2022-10-03T06:24:39.539Z,14.65
2022-10-03T06:29:40.835Z,14.82
2022-10-03T06:34:56.033Z,14.73
2022-10-03T06:40:22.285Z,14.61
2022-10-03T06:45:50.459Z,14.80
2022-10-03T06:51:30.348Z,14.66
2022-10-03T06:56:57.769Z,14.83
2022-10-03T07:02:26.092Z,14.78
2022-10-03T07:08:09.290Z,15.17
2022-10-03T07:13:29.383Z,15.11
2022-10-03T07:19:04.505Z,14.98
2022-10-03T07:24:40.598Z,14.92
2022-10-03T07:30:14.041Z,14.91
2022-10-03T07:35:57.044Z,14.66
2022-10-03T07:41:17.106Z,15.11
2022-10-03T07:46:39.797Z,15.28
2022-10-03T07:51:46.964Z,15.18
2022-10-03T07:57:31.142Z,15.49
2022-10-03T08:03:00.058Z,15.47
2022-10-03T08:08:19.947Z,15.68
2022-10-03T08:13:52.617Z,15.80
2022-10-03T08:19:00.470Z,16.28
2022-10-03T08:24:26.946Z,16.45
2022-10-03T08:29:53.229Z,16.31
2022-10-03T08:35:29.280Z,16.69
2022-10-03T08:40:45.565Z,16.81
2022-10-03T08:52:03.835Z,16.76
2022-10-03T08:57:31.860Z,16.60
2022-10-03T09:03:20.478Z,17.00
2022-10-03T09:08:38.413Z,17.03
2022-10-03T09:14:19.019Z,17.34
2022-10-03T09:19:51.111Z,17.49
2022-10-03T09:25:13.382Z,17.53
2022-10-03T09:30:42.295Z,17.55
2022-10-03T09:36:10.063Z,18.12
2022-10-03T09:41:48.931Z,18.25
2022-10-03T09:47:23.568Z,17.75
2022-10-03T09:52:35.129Z,18.30
2022-10-03T09:57:57.335Z,17.77
2022-10-03T10:03:02.161Z,17.55
2022-10-03T10:08:40.304Z,17.69
2022-10-03T10:14:07.207Z,17.77
2022-10-03T10:19:45.706Z,17.63
2022-10-03T10:25:15.248Z,17.32
2022-10-03T10:30:51.768Z,17.40
2022-10-03T10:36:11.832Z,17.35
2022-10-03T10:41:54.555Z,17.73
2022-10-03T10:47:31.706Z,18.11
2022-10-03T10:52:59.007Z,18.26
2022-10-03T10:58:32.881Z,18.37
2022-10-03T11:03:54.610Z,18.26
2022-10-03T11:09:37.930Z,17.97
2022-10-03T11:15:09.728Z,17.62
2022-10-03T11:20:45.783Z,18.26
2022-10-03T11:26:23.426Z,18.54
2022-10-03T11:31:51.984Z,18.54
2022-10-03T11:37:32.651Z,18.87
2022-10-03T11:42:59.306Z,19.00
2022-10-03T11:48:19.559Z,19.30
2022-10-03T11:53:33.106Z,19.64
2022-10-03T11:59:06.064Z,19.37
2022-10-03T12:04:09.989Z,19.73
2022-10-03T12:09:59.012Z,19.29
2022-10-03T12:15:35.279Z,19.52
2022-10-03T12:21:02.087Z,19.69
2022-10-03T12:26:05.595Z,19.57
2022-10-03T12:31:08.358Z,19.61
2022-10-03T12:36:19.295Z,19.83
2022-10-03T12:41:42.992Z,20.10
2022-10-03T12:47:07.521Z,20.18
2022-10-03T12:52:23.709Z,20.53
2022-10-03T12:57:57.655Z,21.09
2022-10-03T13:03:10.731Z,21.10
2022-10-03T13:08:29.696Z,20.85
2022-10-03T13:14:12.917Z,20.82
2022-10-03T13:19:20.952Z,20.99
2022-10-03T13:24:39.540Z,21.24
2022-10-03T13:29:42.689Z,21.27
2022-10-03T13:35:28.702Z,21.06
2022-10-03T13:40:32.254Z,20.68
2022-10-03T13:45:32.997Z,20.13
2022-10-03T13:50:48.519Z,20.20
2022-10-03T13:55:55.049Z,21.26
2022-10-03T14:01:13.664Z,21.76
2022-10-03T14:06:37.956Z,23.15
2022-10-03T14:11:43.816Z,25.05
2022-10-03T14:17:03.084Z,23.41
2022-10-03T14:22:12.294Z,22.58
2022-10-03T14:27:13.864Z,22.67
2022-10-03T14:32:46.829Z,21.63
2022-10-03T14:38:21.686Z,21.43
2022-10-03T14:43:28.111Z,20.71
2022-10-03T14:48:41.089Z,20.22
2022-10-03T14:54:05.374Z,20.10
2022-10-03T14:59:37.940Z,19.94
2022-10-03T15:04:46.840Z,19.40
2022-10-03T15:09:50.912Z,19.56
2022-10-03T15:15:03.615Z,19.35
2022-10-03T15:25:38.180Z,19.13
2022-10-03T15:30:38.762Z,18.69
2022-10-03T15:36:32.973Z,18.03
2022-10-03T15:41:49.631Z,17.89
2022-10-03T15:46:54.280Z,17.99
2022-10-03T15:51:53.575Z,17.53
2022-10-03T15:56:55.574Z,18.10
2022-10-03T16:01:59.260Z,18.26
2022-10-03T16:07:11.640Z,18.29
2022-10-03T16:12:44.898Z,18.43
2022-10-03T16:18:01.219Z,18.30
2022-10-03T16:23:24.515Z,18.34
2022-10-03T16:29:17.294Z,18.39
2022-10-03T16:34:54.273Z,18.15
2022-10-03T16:45:31.424Z,17.93
2022-10-03T16:50:36.860Z,17.81
2022-10-03T16:56:00.167Z,17.83
2022-10-03T17:01:22.504Z,17.77
2022-10-03T17:06:34.566Z,17.57
2022-10-03T17:11:36.376Z,17.66
2022-10-03T17:16:45.217Z,17.51
2022-10-03T17:21:57.176Z,17.39
2022-10-03T17:26:59.443Z,17.14
2022-10-03T17:32:20.179Z,17.34
2022-10-03T17:38:59.713Z,16.87
2022-10-03T17:44:35.044Z,16.74
2022-10-03T17:50:09.581Z,16.99
2022-10-03T17:55:08.470Z,16.92
2022-10-03T18:00:33.773Z,16.78
2022-10-03T18:05:47.835Z,16.66
2022-10-03T18:10:57.445Z,16.39
2022-10-03T18:16:47.347Z,16.24
2022-10-03T18:21:53.422Z,16.30
2022-10-03T18:27:34.289Z,15.88
2022-10-03T18:32:42.082Z,15.84
2022-10-03T18:37:45.342Z,15.90
2022-10-03T18:42:45.923Z,15.76
2022-10-03T18:47:53.244Z,15.73
2022-10-03T18:53:51.543Z,15.53
2022-10-03T18:59:36.128Z,15.64
2022-10-03T19:04:39.825Z,15.66
2022-10-03T19:09:47.615Z,15.62
2022-10-03T19:15:09.937Z,15.49
2022-10-03T19:20:29.035Z,15.54
2022-10-03T19:25:41.392Z,15.48
2022-10-03T19:30:54.416Z,15.56
2022-10-03T19:36:08.145Z,15.25
2022-10-03T19:42:15.392Z,15.27
2022-10-03T19:47:00.451Z,15.06
2022-10-03T19:52:36.307Z,15.10
2022-10-03T19:57:38.123Z,15.15
2022-10-03T20:02:39.125Z,15.05
2022-10-03T20:07:50.410Z,15.02
2022-10-03T20:12:54.474Z,14.94
2022-10-03T20:17:55.419Z,14.79
2022-10-03T20:22:57.609Z,14.71
2022-10-03T20:28:01.702Z,14.72
2022-10-03T20:33:00.768Z,14.48
2022-10-03T20:38:34.046Z,14.27
2022-10-03T20:49:13.175Z,14.23
2022-10-03T20:55:05.482Z,14.06
2022-10-03T21:00:12.440Z,14.06
2022-10-03T21:05:50.318Z,13.76
2022-10-03T21:10:58.514Z,13.86
2022-10-03T21:16:22.393Z,13.86
2022-10-03T21:21:32.210Z,13.70
2022-10-03T21:26:52.425Z,13.69
2022-10-03T21:32:29.074Z,13.58
2022-10-03T21:38:09.783Z,13.88
2022-10-03T21:43:45.113Z,13.74
2022-10-03T21:48:58.904Z,13.88
2022-10-03T21:54:00.126Z,13.80
2022-10-03T21:59:25.733Z,13.83
2022-10-03T22:04:44.233Z,13.56
2022-10-03T22:09:50.578Z,13.60
2022-10-03T22:15:04.960Z,13.75
2022-10-03T22:20:24.392Z,13.56
2022-10-03T22:26:02.162Z,13.70
2022-10-03T22:31:46.946Z,13.49
2022-10-03T22:36:45.833Z,13.38
2022-10-03T22:41:52.567Z,13.51
2022-10-03T22:46:58.141Z,13.52
2022-10-03T22:52:01.597Z,13.32
2022-10-03T22:57:07.827Z,13.21
2022-10-03T23:02:08.638Z,13.28
2022-10-03T23:07:17.862Z,13.04
2022-10-03T23:12:17.244Z,13.11
2022-10-03T23:17:50.426Z,13.46
2022-10-03T23:23:08.401Z,13.45
2022-10-03T23:28:29.211Z,13.12
2022-10-03T23:33:33.818Z,13.43
2022-10-03T23:38:36.530Z,13.28
2022-10-03T23:43:56.175Z,13.37
2022-10-03T23:49:04.808Z,12.81
2022-10-03T23:54:08.824Z,12.68
2022-10-03T23:59:16.490Z,12.96
